Time;durP1;ratioP1;P1;durP2;ratioP2;P2;SDS_P1;SDS_P2;PMS_P1;PMS_P2;Temp;Humidity;BMP_temperature;BMP_pressure;BME280_temperature;BME280_humidity;BME280_pressure;Samples;Min_cycle;Max_cycle;Signal;HPM_P1;HPM_P2
2023/09/07 00:00:49;;;;;;;4.97;2.47;;;;;;;;;;4973909;28;20110;-62
2023/09/07 00:03:16;;;;;;;5.07;2.40;;;;;;;;;;4959082;28;21508;-63
2023/09/07 00:05:43;;;;;;;6.05;2.72;;;;;;;;;;4959348;28;20050;-64
2023/09/07 00:08:09;;;;;;;7.68;2.80;;;;;;;;;;4962096;28;20039;-64
2023/09/07 00:10:36;;;;;;;5.68;2.70;;;;;;;;;;4961806;28;20422;-62
2023/09/07 00:13:03;;;;;;;5.95;2.88;;;;;;;;;;4962814;28;20527;-64
2023/09/07 00:15:30;;;;;;;5.00;2.35;;;;;;;;;;4961797;28;20046;-65
2023/09/07 00:17:57;;;;;;;7.85;4.70;;;;;;;;;;4970487;28;20191;-62
2023/09/07 00:20:25;;;;;;;9.68;3.50;;;;;;;;;;4968605;28;20047;-65
2023/09/07 00:22:51;;;;;;;8.43;2.97;;;;;;;;;;4965653;28;20046;-66
2023/09/07 00:25:18;;;;;;;5.95;2.85;;;;;;;;;;4965474;28;20415;-64
2023/09/07 00:27:44;;;;;;;6.40;3.35;;;;;;;;;;4977882;28;20218;-64
2023/09/07 00:30:11;;;;;;;9.15;2.95;;;;;;;;;;4964435;28;20046;-65
2023/09/07 00:32:38;;;;;;;7.28;3.67;;;;;;;;;;4958561;28;20044;-65
2023/09/07 00:35:06;;;;;;;14.38;4.82;;;;;;;;;;4957124;28;20114;-65
2023/09/07 00:37:34;;;;;;;11.52;4.80;;;;;;;;;;4955105;28;20454;-67
2023/09/07 00:40:01;;;;;;;8.40;4.45;;;;;;;;;;4977658;28;21393;-66
2023/09/07 00:42:27;;;;;;;12.35;5.50;;;;;;;;;;4965330;28;20038;-67
2023/09/07 00:44:54;;;;;;;7.95;4.82;;;;;;;;;;4966481;28;20049;-65
2023/09/07 00:47:22;;;;;;;10.20;5.50;;;;;;;;;;4966869;28;20518;-66
2023/09/07 00:49:49;;;;;;;11.50;5.70;;;;;;;;;;4966278;28;20474;-66
2023/09/07 00:52:17;;;;;;;12.82;6.35;;;;;;;;;;4971227;28;20057;-66
2023/09/07 00:54:43;;;;;;;12.48;6.90;;;;;;;;;;4965799;28;20567;-67
2023/09/07 00:57:10;;;;;;;13.07;7.05;;;;;;;;;;4978987;28;20305;-64
2023/09/07 00:59:37;;;;;;;14.23;7.57;;;;;;;;;;4981655;28;20048;-67
2023/09/07 01:02:05;;;;;;;12.85;7.78;;;;;;;;;;4973539;28;20042;-65
2023/09/07 01:04:33;;;;;;;15.77;8.68;;;;;;;;;;4965942;28;20074;-65
2023/09/07 01:07:18;;;;;;;19.80;10.82;;;;;;;;;;4952941;28;20772;-65
2023/09/07 01:09:45;;;;;;;18.70;10.85;;;;;;;;;;4968107;28;20074;-65
2023/09/07 01:12:15;;;;;;;19.63;11.13;;;;;;;;;;4968098;28;20678;-66
2023/09/07 01:14:42;;;;;;;17.05;10.25;;;;;;;;;;4977167;28;20039;-65
2023/09/07 01:17:11;;;;;;;14.93;9.35;;;;;;;;;;4964243;28;20050;-66
2023/09/07 01:19:38;;;;;;;20.17;10.32;;;;;;;;;;4962431;28;20030;-65
2023/09/07 01:22:05;;;;;;;17.65;10.27;;;;;;;;;;4973532;28;20056;-66
2023/09/07 01:24:34;;;;;;;17.13;9.65;;;;;;;;;;4972138;28;20041;-63
2023/09/07 01:27:03;;;;;;;16.95;9.48;;;;;;;;;;4961155;28;20060;-64
2023/09/07 01:29:30;;;;;;;16.27;9.45;;;;;;;;;;4961350;28;20067;-64
2023/09/07 01:31:57;;;;;;;16.80;9.80;;;;;;;;;;4961255;28;20145;-65
2023/09/07 01:34:24;;;;;;;15.57;9.68;;;;;;;;;;4971899;28;20034;-67
2023/09/07 01:36:51;;;;;;;16.50;9.52;;;;;;;;;;4962576;28;20108;-65
2023/09/07 01:39:18;;;;;;;14.55;8.25;;;;;;;;;;4962232;28;20042;-68
2023/09/07 01:41:44;;;;;;;16.10;9.32;;;;;;;;;;4961541;28;20046;-67
2023/09/07 01:44:11;;;;;;;16.17;9.40;;;;;;;;;;4961313;28;20043;-65
2023/09/07 01:46:40;;;;;;;17.08;9.48;;;;;;;;;;4962045;28;20484;-62
2023/09/07 01:49:07;;;;;;;19.52;10.75;;;;;;;;;;4963291;28;20480;-66
2023/09/07 01:51:34;;;;;;;16.60;10.30;;;;;;;;;;4963204;28;20060;-65
2023/09/07 01:54:01;;;;;;;20.13;9.27;;;;;;;;;;4958500;28;20053;-66
2023/09/07 01:58:58;;;;;;;18.27;9.88;;;;;;;;;;5017435;27;20436;-64
2023/09/07 02:01:26;;;;;;;19.00;9.73;;;;;;;;;;4994793;28;20037;-66
2023/09/07 02:03:53;;;;;;;19.17;10.30;;;;;;;;;;4996231;28;20045;-67
2023/09/07 02:06:20;;;;;;;17.83;9.95;;;;;;;;;;4998474;28;20041;-68
2023/09/07 02:08:46;;;;;;;18.17;10.63;;;;;;;;;;5009291;28;20549;-64
2023/09/07 02:11:13;;;;;;;18.52;10.43;;;;;;;;;;4998098;28;20038;-65
2023/09/07 02:13:59;;;;;;;18.50;10.82;;;;;;;;;;4998371;28;20041;-66
2023/09/07 02:16:26;;;;;;;17.30;10.45;;;;;;;;;;4995830;28;20077;-65
2023/09/07 02:19:02;;;;;;;19.55;11.35;;;;;;;;;;4990457;28;20052;-67
2023/09/07 02:21:28;;;;;;;20.08;10.48;;;;;;;;;;4996322;28;20410;-67
2023/09/07 02:23:58;;;;;;;18.20;11.43;;;;;;;;;;5005797;28;20728;-66
2023/09/07 02:26:25;;;;;;;20.85;11.52;;;;;;;;;;4995772;28;21163;-66
2023/09/07 02:28:51;;;;;;;20.77;11.40;;;;;;;;;;4998817;28;20042;-64
2023/09/07 02:31:18;;;;;;;22.02;11.60;;;;;;;;;;4997849;28;20546;-65
2023/09/07 02:33:44;;;;;;;19.48;11.38;;;;;;;;;;4996239;28;20655;-66
2023/09/07 02:36:11;;;;;;;22.40;11.90;;;;;;;;;;4995373;28;20058;-67
2023/09/07 02:38:38;;;;;;;18.30;11.30;;;;;;;;;;4996725;28;20054;-67
2023/09/07 02:41:04;;;;;;;17.67;11.20;;;;;;;;;;4997699;28;20105;-66
2023/09/07 02:43:31;;;;;;;19.55;11.55;;;;;;;;;;4996012;28;20661;-66
2023/09/07 02:45:58;;;;;;;25.05;12.77;;;;;;;;;;4998208;28;20038;-65
2023/09/07 02:48:25;;;;;;;23.08;13.40;;;;;;;;;;5006669;28;20045;-64
2023/09/07 02:50:53;;;;;;;23.48;13.77;;;;;;;;;;5002238;28;20038;-65
2023/09/07 02:53:20;;;;;;;23.42;13.85;;;;;;;;;;5008517;28;20046;-65
2023/09/07 02:55:47;;;;;;;22.45;12.98;;;;;;;;;;4998860;28;20407;-65
2023/09/07 02:58:15;;;;;;;22.80;12.40;;;;;;;;;;4999771;28;20088;-66
2023/09/07 03:00:46;;;;;;;22.73;12.38;;;;;;;;;;5009334;28;21288;-66
2023/09/07 03:03:14;;;;;;;19.10;11.57;;;;;;;;;;4998025;28;20053;-65
2023/09/07 03:05:41;;;;;;;22.73;11.40;;;;;;;;;;4998036;28;20046;-65
2023/09/07 03:08:08;;;;;;;16.88;9.02;;;;;;;;;;4996179;28;20037;-66
2023/09/07 03:10:40;;;;;;;14.23;7.85;;;;;;;;;;4984074;28;20623;-65
2023/09/07 03:13:07;;;;;;;14.10;7.20;;;;;;;;;;4983438;28;20045;-66
2023/09/07 03:15:34;;;;;;;9.63;5.43;;;;;;;;;;4985465;28;20046;-66
2023/09/07 03:18:01;;;;;;;8.38;4.53;;;;;;;;;;4984039;28;21397;-65
2023/09/07 03:20:27;;;;;;;6.03;3.35;;;;;;;;;;4985178;28;20044;-65
2023/09/07 03:22:54;;;;;;;7.55;3.38;;;;;;;;;;4985213;28;20426;-66
2023/09/07 03:25:21;;;;;;;6.57;3.10;;;;;;;;;;4984821;28;20034;-65
2023/09/07 03:27:47;;;;;;;5.95;2.22;;;;;;;;;;4985462;28;20054;-65
2023/09/07 03:30:14;;;;;;;4.10;2.05;;;;;;;;;;4984233;28;20123;-65
2023/09/07 03:32:41;;;;;;;5.20;1.85;;;;;;;;;;4985420;28;20112;-68
2023/09/07 03:35:09;;;;;;;4.53;1.50;;;;;;;;;;4986195;28;20126;-65
2023/09/07 03:37:39;;;;;;;3.53;1.70;;;;;;;;;;4984639;28;20089;-66
2023/09/07 03:40:08;;;;;;;4.07;1.52;;;;;;;;;;4985711;28;20046;-65
2023/09/07 03:42:36;;;;;;;3.80;1.40;;;;;;;;;;4985635;28;20525;-66
2023/09/07 03:45:03;;;;;;;4.38;1.67;;;;;;;;;;4986159;28;20046;-63
2023/09/07 03:47:30;;;;;;;3.70;1.38;;;;;;;;;;4985963;28;20049;-65
2023/09/07 03:50:00;;;;;;;4.57;1.40;;;;;;;;;;4986730;28;20038;-64
2023/09/07 03:52:27;;;;;;;6.55;1.30;;;;;;;;;;4986949;28;20460;-65
2023/09/07 03:54:57;;;;;;;4.60;1.60;;;;;;;;;;4984304;28;20069;-68
2023/09/07 03:57:24;;;;;;;3.67;1.30;;;;;;;;;;4985069;28;20711;-64
2023/09/07 03:59:51;;;;;;;4.63;1.58;;;;;;;;;;4987312;28;20094;-65
2023/09/07 04:02:18;;;;;;;5.45;1.35;;;;;;;;;;4986825;28;21506;-66
2023/09/07 04:04:49;;;;;;;4.45;1.45;;;;;;;;;;4994242;28;20100;-63
2023/09/07 04:07:16;;;;;;;3.80;1.40;;;;;;;;;;4985860;28;21316;-64
2023/09/07 04:09:46;;;;;;;3.60;1.08;;;;;;;;;;4984390;28;20406;-64
2023/09/07 04:12:13;;;;;;;4.78;1.40;;;;;;;;;;4983665;28;20078;-66
2023/09/07 04:14:41;;;;;;;4.10;1.50;;;;;;;;;;4986406;28;20037;-65
2023/09/07 04:17:08;;;;;;;4.63;1.20;;;;;;;;;;4981032;28;20054;-65
2023/09/07 04:19:35;;;;;;;5.57;1.50;;;;;;;;;;4982253;28;20944;-65
2023/09/07 04:22:01;;;;;;;4.20;1.70;;;;;;;;;;4984222;28;20132;-65
2023/09/07 04:24:28;;;;;;;4.72;1.30;;;;;;;;;;4990435;28;20045;-66
2023/09/07 04:26:59;;;;;;;4.00;1.45;;;;;;;;;;4993042;28;20415;-66
2023/09/07 04:29:26;;;;;;;4.10;1.52;;;;;;;;;;4993282;28;20779;-64
2023/09/07 04:31:52;;;;;;;4.47;1.20;;;;;;;;;;4984834;28;20034;-65
2023/09/07 04:34:19;;;;;;;5.07;1.40;;;;;;;;;;4980904;28;20089;-65
2023/09/07 04:36:46;;;;;;;4.45;1.40;;;;;;;;;;4981347;28;20053;-65
2023/09/07 04:39:14;;;;;;;5.70;1.58;;;;;;;;;;4982970;28;20046;-65
2023/09/07 04:41:41;;;;;;;3.80;1.33;;;;;;;;;;4982942;28;20042;-65
2023/09/07 04:44:07;;;;;;;4.85;1.30;;;;;;;;;;4993395;28;20080;-67
2023/09/07 04:46:34;;;;;;;6.65;1.50;;;;;;;;;;4982767;28;20041;-65
2023/09/07 04:49:00;;;;;;;5.35;1.42;;;;;;;;;;4982466;28;20471;-63
2023/09/07 04:51:27;;;;;;;3.88;1.55;;;;;;;;;;4982339;28;20130;-64
2023/09/07 04:53:54;;;;;;;4.32;1.63;;;;;;;;;;4992500;28;21490;-63
2023/09/07 04:56:21;;;;;;;5.18;1.58;;;;;;;;;;4984090;28;20343;-65
2023/09/07 04:58:48;;;;;;;4.32;1.30;;;;;;;;;;4982193;28;20609;-64
2023/09/07 05:01:15;;;;;;;3.42;1.13;;;;;;;;;;4993991;28;20174;-64
2023/09/07 05:03:41;;;;;;;4.25;1.58;;;;;;;;;;4982087;28;20426;-64
2023/09/07 05:06:08;;;;;;;4.13;1.33;;;;;;;;;;4981233;28;20104;-64
2023/09/07 05:08:35;;;;;;;3.80;1.55;;;;;;;;;;4982607;28;20092;-63
2023/09/07 05:11:02;;;;;;;3.78;1.30;;;;;;;;;;4981527;28;20054;-65
2023/09/07 05:13:29;;;;;;;4.55;1.50;;;;;;;;;;4981581;28;20169;-64
2023/09/07 05:15:56;;;;;;;5.47;1.40;;;;;;;;;;4982215;28;20603;-65
2023/09/07 05:18:23;;;;;;;4.45;1.58;;;;;;;;;;4982016;28;20046;-63
2023/09/07 05:20:53;;;;;;;6.03;1.17;;;;;;;;;;4980902;28;20508;-63
2023/09/07 05:23:21;;;;;;;4.40;1.00;;;;;;;;;;4981570;28;20050;-64
2023/09/07 05:25:52;;;;;;;4.57;1.33;;;;;;;;;;4980550;28;20624;-65
2023/09/07 05:28:19;;;;;;;5.70;1.42;;;;;;;;;;4981900;28;20374;-66
2023/09/07 05:30:46;;;;;;;5.53;1.25;;;;;;;;;;4982471;28;20593;-65
2023/09/07 05:33:14;;;;;;;6.43;1.48;;;;;;;;;;4982718;28;20415;-65
2023/09/07 05:35:45;;;;;;;3.83;1.15;;;;;;;;;;4983127;28;20442;-66
2023/09/07 05:38:12;;;;;;;4.97;1.35;;;;;;;;;;4982388;28;20058;-65
2023/09/07 05:40:40;;;;;;;4.30;1.60;;;;;;;;;;4979754;28;20085;-64
2023/09/07 05:43:07;;;;;;;4.05;1.30;;;;;;;;;;4991790;28;20041;-64
2023/09/07 05:45:38;;;;;;;4.30;1.42;;;;;;;;;;4982327;28;20100;-66
2023/09/07 05:48:05;;;;;;;4.65;1.20;;;;;;;;;;4983488;28;20030;-65
2023/09/07 05:50:32;;;;;;;4.43;1.40;;;;;;;;;;4980113;28;20042;-65
2023/09/07 05:52:59;;;;;;;4.10;1.42;;;;;;;;;;4982782;28;20045;-64
2023/09/07 05:55:45;;;;;;;3.92;1.45;;;;;;;;;;4978619;28;20854;-64
2023/09/07 05:58:12;;;;;;;4.40;1.33;;;;;;;;;;4976178;28;20095;-66
2023/09/07 06:00:39;;;;;;;4.82;1.50;;;;;;;;;;4973039;28;20053;-63
2023/09/07 06:03:06;;;;;;;3.38;1.15;;;;;;;;;;4978505;28;20069;-64
2023/09/07 06:05:35;;;;;;;3.83;1.38;;;;;;;;;;4976376;28;20053;-65
2023/09/07 06:08:02;;;;;;;4.00;1.38;;;;;;;;;;4978430;28;20057;-64
2023/09/07 06:10:29;;;;;;;3.65;1.30;;;;;;;;;;4979231;28;20946;-64
2023/09/07 06:12:56;;;;;;;4.75;1.70;;;;;;;;;;4977657;28;20069;-68
2023/09/07 06:15:23;;;;;;;5.00;1.50;;;;;;;;;;4976457;28;20495;-64
2023/09/07 06:17:49;;;;;;;3.85;1.42;;;;;;;;;;4978469;28;20081;-64
2023/09/07 06:20:19;;;;;;;3.90;1.40;;;;;;;;;;4979308;28;20035;-65
2023/09/07 06:22:45;;;;;;;4.10;1.52;;;;;;;;;;4979721;28;20410;-64
2023/09/07 06:25:12;;;;;;;3.88;1.40;;;;;;;;;;4979861;28;20132;-64
2023/09/07 06:27:39;;;;;;;7.18;1.63;;;;;;;;;;4976341;28;20570;-63
2023/09/07 06:30:08;;;;;;;3.80;1.45;;;;;;;;;;4979320;28;20046;-63
2023/09/07 06:32:35;;;;;;;5.28;1.73;;;;;;;;;;4978784;28;20185;-65
2023/09/07 06:35:02;;;;;;;4.70;1.63;;;;;;;;;;4980798;28;20620;-64
2023/09/07 06:37:28;;;;;;;3.78;1.40;;;;;;;;;;4979295;28;20132;-65
2023/09/07 06:39:55;;;;;;;5.78;1.75;;;;;;;;;;4980618;28;20041;-65
2023/09/07 06:42:22;;;;;;;4.68;1.27;;;;;;;;;;4981486;28;20644;-65
2023/09/07 06:44:48;;;;;;;4.25;1.75;;;;;;;;;;4984244;28;20073;-65
2023/09/07 06:47:15;;;;;;;5.57;1.50;;;;;;;;;;4994970;28;20034;-65
2023/09/07 06:49:41;;;;;;;5.05;1.70;;;;;;;;;;4983990;28;20057;-64
2023/09/07 06:52:08;;;;;;;5.22;1.55;;;;;;;;;;4985039;28;20616;-64
2023/09/07 06:54:35;;;;;;;4.68;1.73;;;;;;;;;;4982455;28;20042;-64
2023/09/07 06:57:02;;;;;;;6.45;1.45;;;;;;;;;;4982104;28;20141;-65
2023/09/07 06:59:28;;;;;;;4.03;1.50;;;;;;;;;;4983754;28;20034;-63
2023/09/07 07:01:55;;;;;;;4.60;1.30;;;;;;;;;;4981476;28;20420;-64
2023/09/07 07:04:21;;;;;;;4.47;1.20;;;;;;;;;;4986098;28;20046;-64
2023/09/07 07:06:49;;;;;;;4.32;1.60;;;;;;;;;;4984056;28;20679;-64
2023/09/07 07:09:17;;;;;;;3.95;1.17;;;;;;;;;;4985632;28;20479;-63
2023/09/07 07:11:44;;;;;;;3.92;1.45;;;;;;;;;;5007194;28;20176;-64
2023/09/07 07:14:11;;;;;;;3.70;1.50;;;;;;;;;;4995731;28;20038;-65
2023/09/07 07:16:38;;;;;;;4.28;1.50;;;;;;;;;;4983936;28;20038;-63
2023/09/07 07:19:05;;;;;;;4.15;1.45;;;;;;;;;;4996852;28;20656;-65
2023/09/07 07:21:31;;;;;;;4.55;1.30;;;;;;;;;;4985912;28;20136;-64
2023/09/07 07:23:58;;;;;;;3.95;1.50;;;;;;;;;;4982047;28;20048;-64
2023/09/07 07:26:24;;;;;;;3.40;1.25;;;;;;;;;;4983611;28;20089;-64
2023/09/07 07:28:51;;;;;;;4.15;1.25;;;;;;;;;;4985718;28;20592;-63
2023/09/07 07:31:18;;;;;;;4.57;1.60;;;;;;;;;;4984898;28;20137;-64
2023/09/07 07:33:44;;;;;;;5.05;1.70;;;;;;;;;;4984522;28;20042;-64
2023/09/07 07:36:11;;;;;;;4.90;1.90;;;;;;;;;;4993477;28;20049;-64
2023/09/07 07:38:37;;;;;;;4.00;1.67;;;;;;;;;;4983554;28;20096;-63
2023/09/07 07:41:04;;;;;;;7.28;2.10;;;;;;;;;;4982055;28;20410;-65
2023/09/07 07:43:33;;;;;;;6.18;1.90;;;;;;;;;;4994313;28;20045;-64
2023/09/07 07:46:00;;;;;;;6.68;2.60;;;;;;;;;;4986668;28;20050;-64
2023/09/07 07:48:29;;;;;;;7.00;2.47;;;;;;;;;;4984233;28;20041;-63
2023/09/07 07:50:56;;;;;;;6.55;2.72;;;;;;;;;;4996175;28;20177;-65
2023/09/07 07:53:23;;;;;;;5.78;2.60;;;;;;;;;;4997000;28;20066;-64
2023/09/07 07:55:50;;;;;;;7.82;2.90;;;;;;;;;;4982066;28;20931;-62
2023/09/07 07:58:17;;;;;;;6.75;2.90;;;;;;;;;;4983896;28;20051;-64
2023/09/07 08:00:47;;;;;;;7.00;2.63;;;;;;;;;;5002519;28;20052;-63
2023/09/07 08:03:14;;;;;;;6.03;2.80;;;;;;;;;;4982125;28;20113;-66
2023/09/07 08:05:41;;;;;;;10.30;3.17;;;;;;;;;;4990395;28;20041;-68
2023/09/07 08:08:07;;;;;;;6.88;3.20;;;;;;;;;;4985220;28;20038;-65
2023/09/07 08:10:36;;;;;;;6.75;2.97;;;;;;;;;;4992565;28;20171;-65
2023/09/07 08:13:03;;;;;;;6.03;3.10;;;;;;;;;;4982809;28;20099;-66
2023/09/07 08:15:32;;;;;;;5.22;2.60;;;;;;;;;;4983809;28;20046;-66
2023/09/07 08:17:59;;;;;;;6.43;2.60;;;;;;;;;;4983712;28;20050;-66
2023/09/07 08:20:29;;;;;;;6.30;2.67;;;;;;;;;;4983982;28;20065;-65
2023/09/07 08:22:57;;;;;;;6.00;2.60;;;;;;;;;;4982750;28;20038;-67
2023/09/07 08:25:25;;;;;;;11.15;2.42;;;;;;;;;;4984708;28;20050;-65
2023/09/07 08:27:55;;;;;;;5.22;2.60;;;;;;;;;;4983604;28;20518;-65
2023/09/07 08:30:24;;;;;;;5.57;2.30;;;;;;;;;;4985795;28;20654;-65
2023/09/07 08:32:51;;;;;;;5.18;2.42;;;;;;;;;;4982980;28;20089;-66
2023/09/07 08:35:18;;;;;;;6.68;2.78;;;;;;;;;;4983816;28;20116;-65
2023/09/07 08:37:44;;;;;;;8.85;2.80;;;;;;;;;;4983379;28;20073;-64
2023/09/07 08:40:12;;;;;;;4.68;2.25;;;;;;;;;;4981580;28;20704;-66
2023/09/07 08:42:39;;;;;;;6.18;2.78;;;;;;;;;;4981074;28;20076;-63
2023/09/07 08:45:07;;;;;;;6.47;2.70;;;;;;;;;;4982662;28;20041;-63
2023/09/07 08:47:35;;;;;;;6.25;2.53;;;;;;;;;;4982128;28;20098;-64
2023/09/07 08:50:02;;;;;;;6.10;2.75;;;;;;;;;;4993436;28;20042;-64
2023/09/07 08:52:29;;;;;;;8.15;2.63;;;;;;;;;;4981963;28;20140;-64
2023/09/07 08:54:58;;;;;;;5.65;2.63;;;;;;;;;;4982479;28;20042;-64
2023/09/07 08:57:25;;;;;;;5.35;2.50;;;;;;;;;;4980492;28;20057;-66
2023/09/07 08:59:52;;;;;;;6.38;2.67;;;;;;;;;;4983142;28;20046;-64
2023/09/07 09:02:19;;;;;;;5.18;2.65;;;;;;;;;;4978114;28;20574;-66
2023/09/07 09:04:46;;;;;;;7.07;2.63;;;;;;;;;;4979678;28;20573;-63
2023/09/07 09:07:13;;;;;;;6.38;2.67;;;;;;;;;;4981517;28;20037;-64
2023/09/07 09:09:39;;;;;;;7.13;2.80;;;;;;;;;;4978584;28;20041;-64
2023/09/07 09:12:10;;;;;;;6.75;2.72;;;;;;;;;;4983498;28;20038;-64
2023/09/07 09:14:36;;;;;;;5.80;3.03;;;;;;;;;;4997264;28;20049;-64
2023/09/07 09:17:03;;;;;;;6.55;3.10;;;;;;;;;;4991642;28;20042;-62
2023/09/07 09:19:37;;;;;;;7.18;3.50;;;;;;;;;;4982186;28;20056;-67
2023/09/07 09:22:03;;;;;;;6.50;3.40;;;;;;;;;;4981194;28;20536;-64
2023/09/07 09:24:34;;;;;;;10.63;3.50;;;;;;;;;;5001406;28;20049;-65
2023/09/07 09:27:00;;;;;;;6.50;3.15;;;;;;;;;;4979896;28;20167;-65
2023/09/07 09:29:27;;;;;;;6.07;2.88;;;;;;;;;;4981450;28;20381;-64
2023/09/07 09:31:54;;;;;;;7.75;2.90;;;;;;;;;;4981746;28;20140;-64
2023/09/07 09:34:21;;;;;;;5.43;2.63;;;;;;;;;;4992623;28;20458;-64
2023/09/07 09:36:50;;;;;;;5.65;2.90;;;;;;;;;;4988822;28;20192;-64
2023/09/07 09:39:23;;;;;;;4.93;2.63;;;;;;;;;;4985752;28;20049;-64
2023/09/07 09:41:50;;;;;;;6.45;2.55;;;;;;;;;;4999057;28;20046;-65
2023/09/07 09:44:17;;;;;;;6.63;3.00;;;;;;;;;;4983283;28;20582;-64
2023/09/07 09:46:44;;;;;;;6.95;3.03;;;;;;;;;;4991158;28;20420;-64
2023/09/07 09:49:13;;;;;;;6.53;2.78;;;;;;;;;;4987566;28;20188;-65
2023/09/07 09:51:40;;;;;;;5.45;2.70;;;;;;;;;;4988657;28;20046;-65
2023/09/07 09:54:07;;;;;;;6.47;3.25;;;;;;;;;;4990953;28;20478;-66
2023/09/07 09:56:34;;;;;;;5.50;2.72;;;;;;;;;;5003938;28;20037;-64
2023/09/07 09:59:00;;;;;;;6.18;2.80;;;;;;;;;;4984601;28;20153;-64
2023/09/07 10:01:29;;;;;;;6.78;3.22;;;;;;;;;;4980095;28;20153;-65
2023/09/07 10:03:57;;;;;;;5.40;3.03;;;;;;;;;;4983187;28;20046;-65
2023/09/07 10:06:29;;;;;;;7.45;3.05;;;;;;;;;;4981955;28;20648;-65
2023/09/07 10:08:59;;;;;;;7.32;2.60;;;;;;;;;;4981080;28;20374;-65
2023/09/07 10:11:38;;;;;;;6.28;2.97;;;;;;;;;;4981335;28;20041;-65
2023/09/07 10:14:06;;;;;;;5.75;2.67;;;;;;;;;;4982784;28;20046;-66
2023/09/07 10:16:43;;;;;;;6.05;2.45;;;;;;;;;;4984071;28;20030;-63
2023/09/07 10:19:20;;;;;;;5.70;3.00;;;;;;;;;;4982909;28;20132;-64
2023/09/07 10:21:47;;;;;;;6.68;2.75;;;;;;;;;;4984825;28;20049;-65
2023/09/07 10:24:25;;;;;;;7.70;3.45;;;;;;;;;;4997332;28;20617;-65
2023/09/07 10:26:58;;;;;;;7.07;3.10;;;;;;;;;;4994415;28;20042;-64
2023/09/07 10:29:24;;;;;;;;;;;;;;;;;;4985175;28;20490;-64
2023/09/07 10:31:54;;;;;;;5.50;3.15;;;;;;;;;;4987660;28;19917;-65
2023/09/07 10:34:22;;;;;;;6.60;3.58;;;;;;;;;;4998273;28;20033;-69
2023/09/07 10:36:52;;;;;;;6.40;3.30;;;;;;;;;;4989592;28;20034;-64
2023/09/07 10:39:19;;;;;;;6.22;3.33;;;;;;;;;;5007321;28;20063;-64
2023/09/07 10:41:46;;;;;;;6.68;3.45;;;;;;;;;;4987291;28;20050;-67
2023/09/07 10:44:13;;;;;;;7.22;3.38;;;;;;;;;;4987549;28;20038;-61
2023/09/07 10:46:40;;;;;;;8.18;3.38;;;;;;;;;;4985189;28;20502;-64
2023/09/07 10:49:12;;;;;;;9.02;3.60;;;;;;;;;;4986575;28;20042;-67
2023/09/07 10:51:46;;;;;;;9.32;3.63;;;;;;;;;;4993863;28;20123;-64
2023/09/07 10:54:16;;;;;;;7.88;3.38;;;;;;;;;;4987115;28;20070;-65
2023/09/07 10:56:45;;;;;;;7.80;3.28;;;;;;;;;;4995709;28;20036;-66
2023/09/07 10:59:12;;;;;;;7.75;3.53;;;;;;;;;;4985208;28;20244;-65
2023/09/07 11:01:39;;;;;;;6.90;3.67;;;;;;;;;;4985796;28;20041;-64
2023/09/07 11:04:08;;;;;;;8.82;3.67;;;;;;;;;;4986238;28;21357;-65
2023/09/07 11:06:34;;;;;;;12.93;3.88;;;;;;;;;;4992312;28;20630;-65
2023/09/07 11:09:10;;;;;;;7.72;3.55;;;;;;;;;;5004769;28;20478;-64
2023/09/07 11:11:37;;;;;;;8.27;4.18;;;;;;;;;;5004130;28;20041;-64
2023/09/07 11:14:04;;;;;;;8.45;4.40;;;;;;;;;;4987825;28;20046;-65
2023/09/07 11:16:31;;;;;;;7.35;3.75;;;;;;;;;;5002634;28;20149;-64
2023/09/07 11:19:00;;;;;;;8.40;4.15;;;;;;;;;;5005636;28;20512;-65
2023/09/07 11:21:27;;;;;;;8.35;4.00;;;;;;;;;;4997207;28;20497;-63
2023/09/07 11:23:54;;;;;;;8.13;4.15;;;;;;;;;;5004110;28;20057;-65
2023/09/07 11:26:21;;;;;;;7.88;4.00;;;;;;;;;;5002415;28;20091;-65
2023/09/07 11:28:48;;;;;;;8.18;4.22;;;;;;;;;;5003360;28;20052;-66
2023/09/07 11:31:19;;;;;;;10.10;4.78;;;;;;;;;;5004824;28;20092;-67
2023/09/07 11:33:48;;;;;;;9.10;4.80;;;;;;;;;;4983608;28;20580;-64
2023/09/07 11:36:14;;;;;;;7.70;4.57;;;;;;;;;;4982908;28;20042;-63
2023/09/07 11:38:43;;;;;;;9.68;4.57;;;;;;;;;;4977654;28;21330;-63
2023/09/07 11:41:10;;;;;;;7.25;4.32;;;;;;;;;;4983698;28;20604;-64
2023/09/07 11:43:39;;;;;;;8.90;4.80;;;;;;;;;;4961990;28;20034;-64
2023/09/07 11:46:05;;;;;;;11.85;5.00;;;;;;;;;;4984608;28;20097;-65
2023/09/07 11:48:33;;;;;;;10.32;5.00;;;;;;;;;;4982046;28;20169;-64
2023/09/07 11:51:00;;;;;;;9.75;4.60;;;;;;;;;;4984101;28;20359;-64
2023/09/07 11:53:27;;;;;;;9.30;5.00;;;;;;;;;;4983573;28;20042;-64
2023/09/07 11:55:53;;;;;;;9.07;4.88;;;;;;;;;;4980914;28;20558;-64
2023/09/07 11:58:20;;;;;;;9.63;5.28;;;;;;;;;;4964479;28;20050;-64
2023/09/07 12:00:47;;;;;;;9.75;5.15;;;;;;;;;;4965078;28;20136;-65
2023/09/07 12:03:13;;;;;;;11.10;5.68;;;;;;;;;;4984140;28;20490;-64
2023/09/07 12:05:42;;;;;;;16.70;5.80;;;;;;;;;;4984029;28;20089;-64
2023/09/07 12:08:09;;;;;;;14.10;5.72;;;;;;;;;;4979943;28;20711;-64
2023/09/07 12:10:35;;;;;;;15.95;5.50;;;;;;;;;;4985327;28;20034;-62
2023/09/07 12:13:02;;;;;;;10.30;5.20;;;;;;;;;;4985987;28;20034;-64
2023/09/07 12:15:28;;;;;;;11.60;5.90;;;;;;;;;;4981945;28;20038;-63
2023/09/07 12:17:55;;;;;;;10.13;5.70;;;;;;;;;;4985240;28;20055;-65
2023/09/07 12:20:22;;;;;;;10.63;5.82;;;;;;;;;;4984334;28;20042;-63
2023/09/07 12:22:49;;;;;;;12.73;5.82;;;;;;;;;;4984973;28;20038;-64
2023/09/07 12:25:15;;;;;;;11.77;6.25;;;;;;;;;;4985538;28;20038;-63
2023/09/07 12:27:46;;;;;;;13.10;6.28;;;;;;;;;;4976309;28;20042;-62
2023/09/07 12:30:13;;;;;;;18.23;7.07;;;;;;;;;;4983094;28;20544;-64
2023/09/07 12:32:40;;;;;;;13.20;5.93;;;;;;;;;;4985476;28;20611;-63
2023/09/07 12:35:08;;;;;;;13.85;6.63;;;;;;;;;;4981815;28;20037;-64
2023/09/07 12:37:36;;;;;;;13.18;6.82;;;;;;;;;;4966522;28;20060;-63
2023/09/07 12:40:12;;;;;;;12.63;6.20;;;;;;;;;;4985534;28;20038;-64
2023/09/07 12:42:42;;;;;;;11.43;6.28;;;;;;;;;;4981009;28;20046;-63
2023/09/07 12:45:10;;;;;;;12.10;7.25;;;;;;;;;;4984704;28;20049;-64
2023/09/07 12:47:37;;;;;;;14.05;6.75;;;;;;;;;;4984319;28;20100;-61
2023/09/07 12:50:04;;;;;;;14.48;6.68;;;;;;;;;;4965481;28;20100;-62
2023/09/07 12:52:32;;;;;;;12.93;6.47;;;;;;;;;;4974505;28;20121;-63
2023/09/07 12:54:58;;;;;;;11.60;6.40;;;;;;;;;;4982933;28;20050;-65
2023/09/07 12:57:25;;;;;;;11.65;6.30;;;;;;;;;;4993308;28;20093;-62
2023/09/07 12:59:51;;;;;;;11.20;6.70;;;;;;;;;;4978404;28;20050;-63
2023/09/07 13:02:18;;;;;;;11.45;6.63;;;;;;;;;;4993486;28;20111;-65
2023/09/07 13:04:45;;;;;;;16.55;6.35;;;;;;;;;;4988159;28;20740;-65
2023/09/07 13:07:11;;;;;;;12.35;6.80;;;;;;;;;;5011859;28;20530;-64
2023/09/07 13:09:39;;;;;;;12.75;6.72;;;;;;;;;;4999739;28;20056;-65
2023/09/07 13:12:06;;;;;;;12.77;6.47;;;;;;;;;;4998602;28;20089;-64
2023/09/07 13:14:33;;;;;;;10.18;6.00;;;;;;;;;;5011522;28;20823;-65
2023/09/07 13:16:59;;;;;;;13.32;6.57;;;;;;;;;;4985322;28;20083;-64
2023/09/07 13:19:26;;;;;;;12.50;6.68;;;;;;;;;;5003739;28;20129;-65
2023/09/07 13:21:53;;;;;;;12.55;7.53;;;;;;;;;;4986169;28;20042;-65
2023/09/07 13:24:19;;;;;;;13.23;6.57;;;;;;;;;;4981096;28;20156;-67
2023/09/07 13:26:49;;;;;;;16.58;7.03;;;;;;;;;;4984189;28;20217;-66
2023/09/07 13:29:17;;;;;;;13.13;6.47;;;;;;;;;;4982945;28;20065;-67
2023/09/07 13:32:03;;;;;;;14.25;6.93;;;;;;;;;;4983620;28;20064;-66
2023/09/07 13:34:30;;;;;;;13.02;7.25;;;;;;;;;;4939986;28;20050;-65
2023/09/07 13:36:59;;;;;;;12.98;7.00;;;;;;;;;;4955205;28;20479;-64
2023/09/07 13:39:26;;;;;;;12.45;6.38;;;;;;;;;;4952619;28;20053;-63
2023/09/07 13:41:52;;;;;;;10.55;6.70;;;;;;;;;;4954011;28;20035;-63
2023/09/07 13:44:19;;;;;;;13.00;6.80;;;;;;;;;;4952901;28;20510;-64
2023/09/07 13:46:46;;;;;;;13.35;6.68;;;;;;;;;;4954475;28;20058;-65
2023/09/07 13:49:13;;;;;;;14.70;6.53;;;;;;;;;;4955510;28;20054;-64
2023/09/07 13:51:41;;;;;;;13.27;6.78;;;;;;;;;;4954328;28;20605;-64
2023/09/07 13:54:08;;;;;;;17.08;7.43;;;;;;;;;;4938850;28;20085;-65
2023/09/07 13:56:36;;;;;;;11.95;6.68;;;;;;;;;;4955048;28;20086;-65
2023/09/07 13:59:03;;;;;;;15.00;7.65;;;;;;;;;;4953037;28;20223;-66
2023/09/07 14:01:30;;;;;;;13.55;7.32;;;;;;;;;;4955300;28;20053;-63
2023/09/07 14:03:56;;;;;;;11.43;6.95;;;;;;;;;;4954507;28;20061;-64
2023/09/07 14:06:23;;;;;;;13.70;7.35;;;;;;;;;;4952725;28;20473;-64
2023/09/07 14:08:51;;;;;;;14.85;7.80;;;;;;;;;;4969808;28;20038;-64
2023/09/07 14:11:18;;;;;;;17.60;7.30;;;;;;;;;;4959640;28;20084;-64
2023/09/07 14:13:44;;;;;;;16.45;6.72;;;;;;;;;;4980575;28;20081;-65
2023/09/07 14:16:11;;;;;;;13.70;5.88;;;;;;;;;;4981864;28;20052;-64
2023/09/07 14:18:38;;;;;;;13.23;7.38;;;;;;;;;;4981121;28;20046;-63
2023/09/07 14:21:04;;;;;;;14.68;6.97;;;;;;;;;;4977393;28;20048;-65
2023/09/07 14:23:31;;;;;;;13.63;7.28;;;;;;;;;;4979338;28;20035;-64
2023/09/07 14:25:58;;;;;;;14.15;7.20;;;;;;;;;;4980919;28;20500;-65
2023/09/07 14:28:25;;;;;;;14.02;6.78;;;;;;;;;;4981734;28;20530;-67
2023/09/07 14:30:53;;;;;;;12.05;7.07;;;;;;;;;;4982345;28;20045;-65
2023/09/07 14:33:20;;;;;;;16.38;7.93;;;;;;;;;;4993241;28;20054;-65
2023/09/07 14:35:47;;;;;;;12.50;7.07;;;;;;;;;;4981706;28;20422;-64
2023/09/07 14:38:14;;;;;;;11.80;6.70;;;;;;;;;;4984003;28;20050;-68
2023/09/07 14:40:42;;;;;;;12.95;7.07;;;;;;;;;;4981206;28;20045;-64
2023/09/07 14:43:10;;;;;;;14.75;7.43;;;;;;;;;;4984047;28;20550;-62